sensor_id;sensor_type;location;lat;lon;timestamp;P1;durP1;ratioP1;P2;durP2;ratioP2
76964;SDS011;65903;51.452;7.198;2023-03-08T00:00:56;20.63;;;11.38;;
76964;SDS011;65903;51.452;7.198;2023-03-08T00:02:02;20.75;;;10.77;;
76964;SDS011;65903;51.452;7.198;2023-03-08T00:03:05;19.38;;;10.98;;
76964;SDS011;65903;51.452;7.198;2023-03-08T00:04:06;19.77;;;11.70;;
76964;SDS011;65903;51.452;7.198;2023-03-08T00:05:07;21.95;;;11.13;;
76964;SDS011;65903;51.452;7.198;2023-03-08T00:06:13;22.88;;;11.18;;
76964;SDS011;65903;51.452;7.198;2023-03-08T00:07:17;19.58;;;11.63;;
76964;SDS011;65903;51.452;7.198;2023-03-08T00:08:20;20.33;;;12.07;;
76964;SDS011;65903;51.452;7.198;2023-03-08T00:09:21;23.17;;;12.43;;
76964;SDS011;65903;51.452;7.198;2023-03-08T00:10:22;21.25;;;11.77;;
76964;SDS011;65903;51.452;7.198;2023-03-08T00:11:23;19.25;;;11.65;;
76964;SDS011;65903;51.452;7.198;2023-03-08T00:12:28;22.25;;;12.57;;
76964;SDS011;65903;51.452;7.198;2023-03-08T00:13:32;21.15;;;11.43;;
76964;SDS011;65903;51.452;7.198;2023-03-08T00:14:35;23.45;;;11.70;;
76964;SDS011;65903;51.452;7.198;2023-03-08T00:15:36;15.60;;;9.40;;
76964;SDS011;65903;51.452;7.198;2023-03-08T00:16:39;18.42;;;11.45;;
76964;SDS011;65903;51.452;7.198;2023-03-08T00:17:43;20.13;;;11.63;;
76964;SDS011;65903;51.452;7.198;2023-03-08T00:18:46;21.65;;;11.65;;
76964;SDS011;65903;51.452;7.198;2023-03-08T00:19:49;19.80;;;11.77;;
76964;SDS011;65903;51.452;7.198;2023-03-08T00:20:59;21.52;;;11.18;;
76964;SDS011;65903;51.452;7.198;2023-03-08T00:22:01;22.23;;;12.40;;
76964;SDS011;65903;51.452;7.198;2023-03-08T00:23:02;20.73;;;11.52;;
76964;SDS011;65903;51.452;7.198;2023-03-08T00:24:02;22.52;;;12.52;;
76964;SDS011;65903;51.452;7.198;2023-03-08T00:25:07;24.17;;;12.15;;
76964;SDS011;65903;51.452;7.198;2023-03-08T00:26:15;23.38;;;13.05;;
76964;SDS011;65903;51.452;7.198;2023-03-08T00:27:18;23.52;;;11.32;;
76964;SDS011;65903;51.452;7.198;2023-03-08T00:28:19;20.50;;;12.75;;
76964;SDS011;65903;51.452;7.198;2023-03-08T00:29:23;20.50;;;13.05;;
76964;SDS011;65903;51.452;7.198;2023-03-08T00:30:24;21.52;;;11.98;;
76964;SDS011;65903;51.452;7.198;2023-03-08T00:31:28;22.67;;;13.35;;
76964;SDS011;65903;51.452;7.198;2023-03-08T00:32:31;22.52;;;13.18;;
76964;SDS011;65903;51.452;7.198;2023-03-08T00:33:33;23.90;;;13.93;;
76964;SDS011;65903;51.452;7.198;2023-03-08T00:34:39;21.40;;;13.10;;
76964;SDS011;65903;51.452;7.198;2023-03-08T00:35:53;23.13;;;12.00;;
76964;SDS011;65903;51.452;7.198;2023-03-08T00:37:04;22.52;;;13.10;;
76964;SDS011;65903;51.452;7.198;2023-03-08T00:38:04;22.52;;;13.60;;
76964;SDS011;65903;51.452;7.198;2023-03-08T00:39:05;24.00;;;12.82;;
76964;SDS011;65903;51.452;7.198;2023-03-08T00:40:06;22.58;;;13.35;;
76964;SDS011;65903;51.452;7.198;2023-03-08T00:41:08;23.25;;;12.38;;
76964;SDS011;65903;51.452;7.198;2023-03-08T00:42:11;22.17;;;13.90;;
76964;SDS011;65903;51.452;7.198;2023-03-08T00:43:15;23.27;;;12.23;;
76964;SDS011;65903;51.452;7.198;2023-03-08T00:44:15;22.70;;;13.07;;
76964;SDS011;65903;51.452;7.198;2023-03-08T00:45:16;22.30;;;13.63;;
76964;SDS011;65903;51.452;7.198;2023-03-08T00:46:17;21.75;;;13.70;;
76964;SDS011;65903;51.452;7.198;2023-03-08T00:47:18;19.70;;;13.23;;
76964;SDS011;65903;51.452;7.198;2023-03-08T00:48:21;22.67;;;12.52;;
76964;SDS011;65903;51.452;7.198;2023-03-08T00:49:22;20.13;;;12.45;;
76964;SDS011;65903;51.452;7.198;2023-03-08T00:50:25;23.65;;;12.52;;
76964;SDS011;65903;51.452;7.198;2023-03-08T00:51:31;22.00;;;13.55;;
76964;SDS011;65903;51.452;7.198;2023-03-08T00:52:34;22.52;;;12.95;;
76964;SDS011;65903;51.452;7.198;2023-03-08T00:53:35;21.33;;;12.52;;
76964;SDS011;65903;51.452;7.198;2023-03-08T00:54:36;22.52;;;12.30;;
76964;SDS011;65903;51.452;7.198;2023-03-08T00:55:37;22.85;;;12.40;;
76964;SDS011;65903;51.452;7.198;2023-03-08T00:56:40;20.38;;;11.70;;
76964;SDS011;65903;51.452;7.198;2023-03-08T00:57:41;23.50;;;12.15;;
76964;SDS011;65903;51.452;7.198;2023-03-08T00:58:42;21.45;;;12.00;;
76964;SDS011;65903;51.452;7.198;2023-03-08T00:59:43;24.30;;;13.65;;
76964;SDS011;65903;51.452;7.198;2023-03-08T01:00:44;22.42;;;14.15;;
76964;SDS011;65903;51.452;7.198;2023-03-08T01:01:44;25.55;;;13.63;;
76964;SDS011;65903;51.452;7.198;2023-03-08T01:02:48;25.10;;;13.68;;
76964;SDS011;65903;51.452;7.198;2023-03-08T01:03:48;25.55;;;14.25;;
76964;SDS011;65903;51.452;7.198;2023-03-08T01:04:55;25.77;;;13.68;;
76964;SDS011;65903;51.452;7.198;2023-03-08T01:05:56;25.20;;;14.07;;
76964;SDS011;65903;51.452;7.198;2023-03-08T01:06:57;25.45;;;14.05;;
76964;SDS011;65903;51.452;7.198;2023-03-08T01:07:58;26.85;;;14.77;;
76964;SDS011;65903;51.452;7.198;2023-03-08T01:09:02;27.05;;;15.63;;
76964;SDS011;65903;51.452;7.198;2023-03-08T01:10:02;23.52;;;12.88;;
76964;SDS011;65903;51.452;7.198;2023-03-08T01:11:06;23.98;;;12.90;;
76964;SDS011;65903;51.452;7.198;2023-03-08T01:12:07;24.23;;;13.85;;
76964;SDS011;65903;51.452;7.198;2023-03-08T01:13:11;26.05;;;12.90;;
76964;SDS011;65903;51.452;7.198;2023-03-08T01:14:14;27.02;;;13.10;;
76964;SDS011;65903;51.452;7.198;2023-03-08T01:15:15;28.33;;;14.48;;
76964;SDS011;65903;51.452;7.198;2023-03-08T01:16:20;23.55;;;13.68;;
76964;SDS011;65903;51.452;7.198;2023-03-08T01:17:25;25.55;;;13.85;;
76964;SDS011;65903;51.452;7.198;2023-03-08T01:18:26;25.75;;;13.55;;
76964;SDS011;65903;51.452;7.198;2023-03-08T01:19:27;26.48;;;14.00;;
76964;SDS011;65903;51.452;7.198;2023-03-08T01:20:27;27.52;;;14.77;;
76964;SDS011;65903;51.452;7.198;2023-03-08T01:21:29;24.42;;;14.90;;
76964;SDS011;65903;51.452;7.198;2023-03-08T01:22:30;25.38;;;14.60;;
76964;SDS011;65903;51.452;7.198;2023-03-08T01:23:31;26.55;;;13.85;;
76964;SDS011;65903;51.452;7.198;2023-03-08T01:24:34;24.00;;;13.70;;
76964;SDS011;65903;51.452;7.198;2023-03-08T01:25:37;25.27;;;13.57;;
76964;SDS011;65903;51.452;7.198;2023-03-08T01:26:38;27.70;;;14.05;;
76964;SDS011;65903;51.452;7.198;2023-03-08T01:27:39;24.40;;;12.43;;
76964;SDS011;65903;51.452;7.198;2023-03-08T01:28:39;25.10;;;15.00;;
76964;SDS011;65903;51.452;7.198;2023-03-08T01:29:41;24.00;;;13.80;;
76964;SDS011;65903;51.452;7.198;2023-03-08T01:30:43;25.02;;;14.35;;
76964;SDS011;65903;51.452;7.198;2023-03-08T01:31:46;26.52;;;13.98;;
76964;SDS011;65903;51.452;7.198;2023-03-08T01:32:49;26.02;;;14.18;;
76964;SDS011;65903;51.452;7.198;2023-03-08T01:33:50;25.60;;;14.27;;
76964;SDS011;65903;51.452;7.198;2023-03-08T01:34:51;28.63;;;14.98;;
76964;SDS011;65903;51.452;7.198;2023-03-08T01:35:52;21.90;;;12.80;;
76964;SDS011;65903;51.452;7.198;2023-03-08T01:36:53;25.30;;;14.10;;
76964;SDS011;65903;51.452;7.198;2023-03-08T01:37:54;24.15;;;14.32;;
76964;SDS011;65903;51.452;7.198;2023-03-08T01:38:55;24.33;;;13.32;;
76964;SDS011;65903;51.452;7.198;2023-03-08T01:39:59;25.60;;;14.82;;
76964;SDS011;65903;51.452;7.198;2023-03-08T01:41:00;25.13;;;15.07;;
76964;SDS011;65903;51.452;7.198;2023-03-08T01:42:04;28.35;;;14.90;;
76964;SDS011;65903;51.452;7.198;2023-03-08T01:43:21;27.55;;;14.73;;
76964;SDS011;65903;51.452;7.198;2023-03-08T01:44:47;26.67;;;14.98;;
76964;SDS011;65903;51.452;7.198;2023-03-08T01:46:04;25.67;;;15.93;;
76964;SDS011;65903;51.452;7.198;2023-03-08T01:48:17;30.65;;;14.73;;
76964;SDS011;65903;51.452;7.198;2023-03-08T01:49:24;26.05;;;14.85;;
76964;SDS011;65903;51.452;7.198;2023-03-08T01:50:27;23.73;;;13.20;;
76964;SDS011;65903;51.452;7.198;2023-03-08T01:52:34;27.13;;;15.73;;
76964;SDS011;65903;51.452;7.198;2023-03-08T01:53:41;23.60;;;13.93;;
76964;SDS011;65903;51.452;7.198;2023-03-08T01:55:49;21.65;;;13.32;;
76964;SDS011;65903;51.452;7.198;2023-03-08T01:56:54;23.95;;;13.43;;
76964;SDS011;65903;51.452;7.198;2023-03-08T01:58:02;23.98;;;13.35;;
76964;SDS011;65903;51.452;7.198;2023-03-08T01:59:03;24.70;;;14.52;;
76964;SDS011;65903;51.452;7.198;2023-03-08T02:00:14;24.40;;;14.30;;
76964;SDS011;65903;51.452;7.198;2023-03-08T02:01:22;25.38;;;14.43;;
76964;SDS011;65903;51.452;7.198;2023-03-08T02:02:27;24.30;;;13.43;;
76964;SDS011;65903;51.452;7.198;2023-03-08T02:03:31;21.92;;;12.82;;
76964;SDS011;65903;51.452;7.198;2023-03-08T02:04:31;28.05;;;14.93;;
76964;SDS011;65903;51.452;7.198;2023-03-08T02:05:32;23.25;;;13.15;;
76964;SDS011;65903;51.452;7.198;2023-03-08T02:06:36;24.48;;;14.48;;
76964;SDS011;65903;51.452;7.198;2023-03-08T02:08:40;20.70;;;12.65;;
76964;SDS011;65903;51.452;7.198;2023-03-08T02:09:41;26.65;;;14.65;;
76964;SDS011;65903;51.452;7.198;2023-03-08T02:10:42;24.58;;;12.80;;
76964;SDS011;65903;51.452;7.198;2023-03-08T02:11:45;22.35;;;13.45;;
76964;SDS011;65903;51.452;7.198;2023-03-08T02:12:47;28.98;;;14.23;;
76964;SDS011;65903;51.452;7.198;2023-03-08T02:13:51;25.85;;;14.02;;
76964;SDS011;65903;51.452;7.198;2023-03-08T02:14:52;26.73;;;14.80;;
76964;SDS011;65903;51.452;7.198;2023-03-08T02:15:54;24.02;;;14.00;;
76964;SDS011;65903;51.452;7.198;2023-03-08T02:16:56;22.67;;;14.02;;
76964;SDS011;65903;51.452;7.198;2023-03-08T02:17:59;25.50;;;14.80;;
76964;SDS011;65903;51.452;7.198;2023-03-08T02:19:01;23.27;;;12.77;;
76964;SDS011;65903;51.452;7.198;2023-03-08T02:21:24;30.73;;;15.98;;
76964;SDS011;65903;51.452;7.198;2023-03-08T02:22:28;26.15;;;14.82;;
76964;SDS011;65903;51.452;7.198;2023-03-08T02:23:28;28.65;;;15.52;;
76964;SDS011;65903;51.452;7.198;2023-03-08T02:24:29;27.70;;;14.55;;
76964;SDS011;65903;51.452;7.198;2023-03-08T02:25:30;25.20;;;14.35;;
76964;SDS011;65903;51.452;7.198;2023-03-08T02:26:31;26.38;;;14.02;;
76964;SDS011;65903;51.452;7.198;2023-03-08T02:27:35;27.52;;;15.68;;
76964;SDS011;65903;51.452;7.198;2023-03-08T02:28:36;30.38;;;14.88;;
76964;SDS011;65903;51.452;7.198;2023-03-08T02:29:37;27.02;;;14.10;;
76964;SDS011;65903;51.452;7.198;2023-03-08T02:30:38;28.23;;;15.75;;
76964;SDS011;65903;51.452;7.198;2023-03-08T02:31:39;27.85;;;14.70;;
76964;SDS011;65903;51.452;7.198;2023-03-08T02:33:42;24.90;;;14.07;;
76964;SDS011;65903;51.452;7.198;2023-03-08T02:34:43;29.23;;;16.05;;
76964;SDS011;65903;51.452;7.198;2023-03-08T02:35:44;34.67;;;16.48;;
76964;SDS011;65903;51.452;7.198;2023-03-08T02:36:50;26.83;;;13.95;;
76964;SDS011;65903;51.452;7.198;2023-03-08T02:37:51;28.70;;;15.20;;
76964;SDS011;65903;51.452;7.198;2023-03-08T02:38:54;25.80;;;15.00;;
76964;SDS011;65903;51.452;7.198;2023-03-08T02:40:58;32.58;;;14.82;;
76964;SDS011;65903;51.452;7.198;2023-03-08T02:41:59;25.52;;;14.20;;
76964;SDS011;65903;51.452;7.198;2023-03-08T02:43:00;28.08;;;13.77;;
76964;SDS011;65903;51.452;7.198;2023-03-08T02:44:01;29.40;;;15.38;;
76964;SDS011;65903;51.452;7.198;2023-03-08T02:45:02;29.48;;;16.13;;
76964;SDS011;65903;51.452;7.198;2023-03-08T02:46:05;25.60;;;15.02;;
76964;SDS011;65903;51.452;7.198;2023-03-08T02:47:05;32.63;;;14.65;;
76964;SDS011;65903;51.452;7.198;2023-03-08T02:48:07;30.15;;;15.85;;
76964;SDS011;65903;51.452;7.198;2023-03-08T02:49:08;28.90;;;14.80;;
76964;SDS011;65903;51.452;7.198;2023-03-08T02:50:09;26.95;;;13.20;;
76964;SDS011;65903;51.452;7.198;2023-03-08T02:51:12;28.20;;;14.40;;
76964;SDS011;65903;51.452;7.198;2023-03-08T02:53:18;31.08;;;15.52;;
76964;SDS011;65903;51.452;7.198;2023-03-08T02:54:21;27.60;;;14.73;;
76964;SDS011;65903;51.452;7.198;2023-03-08T02:55:22;27.42;;;13.80;;
76964;SDS011;65903;51.452;7.198;2023-03-08T02:56:23;27.23;;;15.73;;
76964;SDS011;65903;51.452;7.198;2023-03-08T02:57:26;25.77;;;15.07;;
76964;SDS011;65903;51.452;7.198;2023-03-08T02:58:29;28.65;;;14.35;;
76964;SDS011;65903;51.452;7.198;2023-03-08T02:59:30;28.30;;;14.70;;
76964;SDS011;65903;51.452;7.198;2023-03-08T03:01:37;27.13;;;13.30;;
76964;SDS011;65903;51.452;7.198;2023-03-08T03:02:40;24.65;;;13.73;;
76964;SDS011;65903;51.452;7.198;2023-03-08T03:04:43;26.30;;;13.93;;
76964;SDS011;65903;51.452;7.198;2023-03-08T03:05:44;25.13;;;14.82;;
76964;SDS011;65903;51.452;7.198;2023-03-08T03:06:45;31.63;;;13.88;;
76964;SDS011;65903;51.452;7.198;2023-03-08T03:07:48;37.70;;;14.23;;
76964;SDS011;65903;51.452;7.198;2023-03-08T03:09:54;25.73;;;13.30;;
76964;SDS011;65903;51.452;7.198;2023-03-08T03:10:55;25.15;;;13.95;;
76964;SDS011;65903;51.452;7.198;2023-03-08T03:11:58;26.88;;;14.70;;
76964;SDS011;65903;51.452;7.198;2023-03-08T03:12:58;28.58;;;15.27;;
76964;SDS011;65903;51.452;7.198;2023-03-08T03:13:59;26.52;;;14.52;;
76964;SDS011;65903;51.452;7.198;2023-03-08T03:15:01;26.02;;;13.98;;
76964;SDS011;65903;51.452;7.198;2023-03-08T03:16:20;27.10;;;14.75;;
76964;SDS011;65903;51.452;7.198;2023-03-08T03:17:23;28.45;;;14.60;;
76964;SDS011;65903;51.452;7.198;2023-03-08T03:18:24;25.27;;;15.20;;
76964;SDS011;65903;51.452;7.198;2023-03-08T03:19:25;27.40;;;14.40;;
76964;SDS011;65903;51.452;7.198;2023-03-08T03:20:26;28.80;;;15.18;;
76964;SDS011;65903;51.452;7.198;2023-03-08T03:21:30;29.95;;;14.70;;
76964;SDS011;65903;51.452;7.198;2023-03-08T03:22:31;29.90;;;15.75;;
76964;SDS011;65903;51.452;7.198;2023-03-08T03:23:35;27.48;;;15.13;;
76964;SDS011;65903;51.452;7.198;2023-03-08T03:24:36;26.55;;;15.77;;
76964;SDS011;65903;51.452;7.198;2023-03-08T03:25:37;29.00;;;15.10;;
76964;SDS011;65903;51.452;7.198;2023-03-08T03:26:37;25.80;;;14.82;;
76964;SDS011;65903;51.452;7.198;2023-03-08T03:27:38;24.20;;;14.13;;
76964;SDS011;65903;51.452;7.198;2023-03-08T03:28:41;23.70;;;13.98;;
76964;SDS011;65903;51.452;7.198;2023-03-08T03:29:45;23.50;;;13.60;;
76964;SDS011;65903;51.452;7.198;2023-03-08T03:30:50;30.63;;;15.27;;
76964;SDS011;65903;51.452;7.198;2023-03-08T03:31:51;28.63;;;14.25;;
76964;SDS011;65903;51.452;7.198;2023-03-08T03:32:52;25.73;;;13.15;;
76964;SDS011;65903;51.452;7.198;2023-03-08T03:33:55;28.55;;;14.75;;
76964;SDS011;65903;51.452;7.198;2023-03-08T03:34:56;26.02;;;14.70;;
76964;SDS011;65903;51.452;7.198;2023-03-08T03:36:00;24.83;;;12.38;;
76964;SDS011;65903;51.452;7.198;2023-03-08T03:37:01;30.08;;;15.30;;
76964;SDS011;65903;51.452;7.198;2023-03-08T03:38:02;24.77;;;14.02;;
76964;SDS011;65903;51.452;7.198;2023-03-08T03:39:02;26.67;;;14.40;;
76964;SDS011;65903;51.452;7.198;2023-03-08T03:40:06;28.58;;;14.48;;
76964;SDS011;65903;51.452;7.198;2023-03-08T03:41:08;28.65;;;12.75;;
76964;SDS011;65903;51.452;7.198;2023-03-08T03:42:11;23.42;;;13.93;;
76964;SDS011;65903;51.452;7.198;2023-03-08T03:43:12;27.15;;;13.85;;
76964;SDS011;65903;51.452;7.198;2023-03-08T03:44:14;25.90;;;13.35;;
76964;SDS011;65903;51.452;7.198;2023-03-08T03:45:15;24.38;;;12.50;;
76964;SDS011;65903;51.452;7.198;2023-03-08T03:46:17;27.42;;;14.38;;
76964;SDS011;65903;51.452;7.198;2023-03-08T03:47:18;31.38;;;15.88;;
76964;SDS011;65903;51.452;7.198;2023-03-08T03:48:19;24.92;;;13.68;;
76964;SDS011;65903;51.452;7.198;2023-03-08T03:49:20;26.95;;;14.65;;
76964;SDS011;65903;51.452;7.198;2023-03-08T03:50:20;26.23;;;12.85;;
76964;SDS011;65903;51.452;7.198;2023-03-08T03:51:23;23.80;;;12.05;;
76964;SDS011;65903;51.452;7.198;2023-03-08T03:52:24;24.48;;;12.65;;
76964;SDS011;65903;51.452;7.198;2023-03-08T03:53:26;24.77;;;11.98;;
76964;SDS011;65903;51.452;7.198;2023-03-08T03:54:33;25.60;;;14.60;;
76964;SDS011;65903;51.452;7.198;2023-03-08T03:55:36;23.52;;;13.10;;
76964;SDS011;65903;51.452;7.198;2023-03-08T03:56:37;23.23;;;12.38;;
76964;SDS011;65903;51.452;7.198;2023-03-08T03:57:38;22.73;;;12.18;;
76964;SDS011;65903;51.452;7.198;2023-03-08T03:58:38;22.13;;;11.02;;
76964;SDS011;65903;51.452;7.198;2023-03-08T03:59:39;22.17;;;12.45;;
76964;SDS011;65903;51.452;7.198;2023-03-08T04:00:43;22.25;;;12.50;;
76964;SDS011;65903;51.452;7.198;2023-03-08T04:01:44;21.65;;;12.35;;
76964;SDS011;65903;51.452;7.198;2023-03-08T04:02:45;23.77;;;13.75;;
76964;SDS011;65903;51.452;7.198;2023-03-08T04:04:49;23.05;;;11.50;;
76964;SDS011;65903;51.452;7.198;2023-03-08T04:05:50;23.15;;;11.40;;
76964;SDS011;65903;51.452;7.198;2023-03-08T04:06:53;21.77;;;11.25;;
76964;SDS011;65903;51.452;7.198;2023-03-08T04:07:54;25.48;;;13.50;;
76964;SDS011;65903;51.452;7.198;2023-03-08T04:08:56;25.08;;;12.73;;
76964;SDS011;65903;51.452;7.198;2023-03-08T04:10:00;18.95;;;9.98;;
76964;SDS011;65903;51.452;7.198;2023-03-08T04:12:02;22.70;;;12.10;;
76964;SDS011;65903;51.452;7.198;2023-03-08T04:13:05;22.13;;;11.98;;
76964;SDS011;65903;51.452;7.198;2023-03-08T04:14:05;21.15;;;11.25;;
76964;SDS011;65903;51.452;7.198;2023-03-08T04:15:07;25.02;;;13.50;;
76964;SDS011;65903;51.452;7.198;2023-03-08T04:16:12;20.52;;;10.70;;
76964;SDS011;65903;51.452;7.198;2023-03-08T04:17:15;24.23;;;11.82;;
76964;SDS011;65903;51.452;7.198;2023-03-08T04:18:17;25.08;;;12.20;;
76964;SDS011;65903;51.452;7.198;2023-03-08T04:19:21;23.85;;;11.88;;
76964;SDS011;65903;51.452;7.198;2023-03-08T04:20:22;24.33;;;12.13;;
76964;SDS011;65903;51.452;7.198;2023-03-08T04:21:23;23.85;;;11.88;;
76964;SDS011;65903;51.452;7.198;2023-03-08T04:22:27;22.85;;;11.38;;
76964;SDS011;65903;51.452;7.198;2023-03-08T04:23:28;25.95;;;13.00;;
76964;SDS011;65903;51.452;7.198;2023-03-08T04:24:28;23.30;;;12.60;;
76964;SDS011;65903;51.452;7.198;2023-03-08T04:25:32;28.40;;;13.65;;
76964;SDS011;65903;51.452;7.198;2023-03-08T04:26:33;23.02;;;11.30;;
76964;SDS011;65903;51.452;7.198;2023-03-08T04:27:34;26.17;;;12.77;;
76964;SDS011;65903;51.452;7.198;2023-03-08T04:28:35;25.38;;;11.88;;
76964;SDS011;65903;51.452;7.198;2023-03-08T04:29:38;25.88;;;13.27;;
76964;SDS011;65903;51.452;7.198;2023-03-08T04:30:39;29.88;;;14.90;;
76964;SDS011;65903;51.452;7.198;2023-03-08T04:31:40;26.25;;;12.98;;
76964;SDS011;65903;51.452;7.198;2023-03-08T04:32:42;24.42;;;13.25;;
76964;SDS011;65903;51.452;7.198;2023-03-08T04:33:43;26.25;;;13.43;;
76964;SDS011;65903;51.452;7.198;2023-03-08T04:34:45;27.67;;;12.88;;
76964;SDS011;65903;51.452;7.198;2023-03-08T04:35:46;23.83;;;12.98;;
76964;SDS011;65903;51.452;7.198;2023-03-08T04:36:46;27.75;;;13.57;;
76964;SDS011;65903;51.452;7.198;2023-03-08T04:37:47;24.38;;;12.77;;
76964;SDS011;65903;51.452;7.198;2023-03-08T04:38:48;26.83;;;13.57;;
76964;SDS011;65903;51.452;7.198;2023-03-08T04:39:49;25.30;;;12.80;;
76964;SDS011;65903;51.452;7.198;2023-03-08T04:40:50;26.52;;;15.05;;
76964;SDS011;65903;51.452;7.198;2023-03-08T04:42:11;21.77;;;12.25;;
76964;SDS011;65903;51.452;7.198;2023-03-08T04:43:12;24.45;;;12.90;;
76964;SDS011;65903;51.452;7.198;2023-03-08T04:44:12;25.63;;;13.57;;
76964;SDS011;65903;51.452;7.198;2023-03-08T04:46:19;23.58;;;11.95;;
76964;SDS011;65903;51.452;7.198;2023-03-08T04:47:24;25.67;;;12.90;;
76964;SDS011;65903;51.452;7.198;2023-03-08T04:48:27;27.08;;;12.32;;
76964;SDS011;65903;51.452;7.198;2023-03-08T04:49:28;23.27;;;12.43;;
76964;SDS011;65903;51.452;7.198;2023-03-08T04:50:29;26.10;;;13.65;;
76964;SDS011;65903;51.452;7.198;2023-03-08T04:51:30;27.30;;;13.63;;
76964;SDS011;65903;51.452;7.198;2023-03-08T04:52:31;30.33;;;14.07;;
76964;SDS011;65903;51.452;7.198;2023-03-08T04:53:34;25.10;;;13.50;;
76964;SDS011;65903;51.452;7.198;2023-03-08T04:54:35;27.58;;;13.25;;
76964;SDS011;65903;51.452;7.198;2023-03-08T04:55:36;28.30;;;14.07;;
76964;SDS011;65903;51.452;7.198;2023-03-08T04:56:37;23.38;;;13.75;;
76964;SDS011;65903;51.452;7.198;2023-03-08T04:57:40;27.00;;;13.65;;
76964;SDS011;65903;51.452;7.198;2023-03-08T04:58:41;22.80;;;12.73;;
76964;SDS011;65903;51.452;7.198;2023-03-08T04:59:43;25.67;;;13.75;;
76964;SDS011;65903;51.452;7.198;2023-03-08T05:00:44;27.50;;;13.30;;
76964;SDS011;65903;51.452;7.198;2023-03-08T05:01:48;22.55;;;12.13;;
76964;SDS011;65903;51.452;7.198;2023-03-08T05:02:49;26.60;;;12.90;;
76964;SDS011;65903;51.452;7.198;2023-03-08T05:03:50;24.48;;;14.15;;
76964;SDS011;65903;51.452;7.198;2023-03-08T05:04:55;22.70;;;12.55;;
76964;SDS011;65903;51.452;7.198;2023-03-08T05:05:55;24.58;;;12.98;;
76964;SDS011;65903;51.452;7.198;2023-03-08T05:06:56;24.13;;;13.55;;
76964;SDS011;65903;51.452;7.198;2023-03-08T05:07:57;23.30;;;11.93;;
76964;SDS011;65903;51.452;7.198;2023-03-08T05:09:07;26.88;;;12.80;;
76964;SDS011;65903;51.452;7.198;2023-03-08T05:10:07;25.77;;;13.57;;
76964;SDS011;65903;51.452;7.198;2023-03-08T05:11:16;23.50;;;12.20;;
76964;SDS011;65903;51.452;7.198;2023-03-08T05:12:21;23.95;;;14.00;;
76964;SDS011;65903;51.452;7.198;2023-03-08T05:13:24;23.95;;;13.57;;
76964;SDS011;65903;51.452;7.198;2023-03-08T05:14:26;22.25;;;11.90;;
76964;SDS011;65903;51.452;7.198;2023-03-08T05:15:29;31.17;;;13.68;;
76964;SDS011;65903;51.452;7.198;2023-03-08T05:16:29;24.60;;;12.77;;
76964;SDS011;65903;51.452;7.198;2023-03-08T05:18:36;22.85;;;12.20;;
76964;SDS011;65903;51.452;7.198;2023-03-08T05:19:39;29.02;;;14.02;;
76964;SDS011;65903;51.452;7.198;2023-03-08T05:20:40;26.05;;;12.82;;
76964;SDS011;65903;51.452;7.198;2023-03-08T05:21:43;25.83;;;13.07;;
76964;SDS011;65903;51.452;7.198;2023-03-08T05:22:44;22.55;;;11.45;;
76964;SDS011;65903;51.452;7.198;2023-03-08T05:23:45;24.42;;;11.57;;
76964;SDS011;65903;51.452;7.198;2023-03-08T05:24:46;26.35;;;13.27;;
76964;SDS011;65903;51.452;7.198;2023-03-08T05:25:50;26.23;;;12.73;;
76964;SDS011;65903;51.452;7.198;2023-03-08T05:26:51;29.83;;;13.73;;
76964;SDS011;65903;51.452;7.198;2023-03-08T05:27:52;23.05;;;11.75;;
76964;SDS011;65903;51.452;7.198;2023-03-08T05:28:55;27.65;;;14.52;;
76964;SDS011;65903;51.452;7.198;2023-03-08T05:29:58;34.25;;;12.73;;
76964;SDS011;65903;51.452;7.198;2023-03-08T05:31:05;30.08;;;14.55;;
76964;SDS011;65903;51.452;7.198;2023-03-08T05:32:12;27.67;;;14.20;;
76964;SDS011;65903;51.452;7.198;2023-03-08T05:33:13;26.55;;;13.18;;
76964;SDS011;65903;51.452;7.198;2023-03-08T05:34:15;22.67;;;12.98;;
76964;SDS011;65903;51.452;7.198;2023-03-08T05:35:16;26.25;;;12.85;;
76964;SDS011;65903;51.452;7.198;2023-03-08T05:36:19;26.27;;;11.77;;
76964;SDS011;65903;51.452;7.198;2023-03-08T05:37:22;26.95;;;12.88;;
76964;SDS011;65903;51.452;7.198;2023-03-08T05:39:26;26.10;;;12.70;;
76964;SDS011;65903;51.452;7.198;2023-03-08T05:40:27;23.05;;;11.98;;
76964;SDS011;65903;51.452;7.198;2023-03-08T05:41:30;26.20;;;11.90;;
76964;SDS011;65903;51.452;7.198;2023-03-08T05:42:31;27.60;;;14.20;;
76964;SDS011;65903;51.452;7.198;2023-03-08T05:43:35;28.23;;;14.13;;
76964;SDS011;65903;51.452;7.198;2023-03-08T05:44:35;22.83;;;11.40;;
76964;SDS011;65903;51.452;7.198;2023-03-08T05:45:37;27.60;;;13.77;;
76964;SDS011;65903;51.452;7.198;2023-03-08T05:46:37;27.10;;;12.82;;
76964;SDS011;65903;51.452;7.198;2023-03-08T05:47:41;23.77;;;12.35;;
76964;SDS011;65903;51.452;7.198;2023-03-08T05:48:45;24.98;;;11.55;;
76964;SDS011;65903;51.452;7.198;2023-03-08T05:49:46;27.80;;;12.48;;
76964;SDS011;65903;51.452;7.198;2023-03-08T05:50:47;23.02;;;11.35;;
76964;SDS011;65903;51.452;7.198;2023-03-08T05:51:47;23.52;;;12.77;;
76964;SDS011;65903;51.452;7.198;2023-03-08T05:52:48;23.77;;;12.00;;
76964;SDS011;65903;51.452;7.198;2023-03-08T05:53:49;24.63;;;12.25;;
76964;SDS011;65903;51.452;7.198;2023-03-08T05:54:50;29.88;;;14.10;;
76964;SDS011;65903;51.452;7.198;2023-03-08T05:55:51;30.65;;;12.60;;
76964;SDS011;65903;51.452;7.198;2023-03-08T05:56:52;23.10;;;10.30;;
76964;SDS011;65903;51.452;7.198;2023-03-08T05:57:52;23.70;;;11.25;;
76964;SDS011;65903;51.452;7.198;2023-03-08T05:58:53;21.65;;;10.07;;
76964;SDS011;65903;51.452;7.198;2023-03-08T05:59:54;18.45;;;9.95;;
76964;SDS011;65903;51.452;7.198;2023-03-08T06:00:55;14.55;;;8.30;;
76964;SDS011;65903;51.452;7.198;2023-03-08T06:01:56;16.40;;;7.95;;
76964;SDS011;65903;51.452;7.198;2023-03-08T06:03:00;13.43;;;7.78;;
76964;SDS011;65903;51.452;7.198;2023-03-08T06:04:04;12.70;;;6.95;;
76964;SDS011;65903;51.452;7.198;2023-03-08T06:05:19;14.65;;;7.13;;
76964;SDS011;65903;51.452;7.198;2023-03-08T06:06:20;14.65;;;6.50;;
76964;SDS011;65903;51.452;7.198;2023-03-08T06:07:21;14.20;;;7.05;;
76964;SDS011;65903;51.452;7.198;2023-03-08T06:08:24;12.90;;;7.22;;
76964;SDS011;65903;51.452;7.198;2023-03-08T06:09:26;12.43;;;6.28;;
76964;SDS011;65903;51.452;7.198;2023-03-08T06:10:30;13.95;;;6.85;;
76964;SDS011;65903;51.452;7.198;2023-03-08T06:11:33;12.20;;;6.40;;
76964;SDS011;65903;51.452;7.198;2023-03-08T06:12:34;13.60;;;7.38;;
76964;SDS011;65903;51.452;7.198;2023-03-08T06:13:35;13.82;;;8.65;;
76964;SDS011;65903;51.452;7.198;2023-03-08T06:14:36;15.10;;;7.95;;
76964;SDS011;65903;51.452;7.198;2023-03-08T06:15:37;16.35;;;7.07;;
76964;SDS011;65903;51.452;7.198;2023-03-08T06:16:38;15.43;;;7.13;;
76964;SDS011;65903;51.452;7.198;2023-03-08T06:17:41;14.85;;;8.15;;
76964;SDS011;65903;51.452;7.198;2023-03-08T06:18:42;11.80;;;6.70;;
76964;SDS011;65903;51.452;7.198;2023-03-08T06:19:43;13.00;;;7.20;;
76964;SDS011;65903;51.452;7.198;2023-03-08T06:20:53;11.98;;;6.80;;
76964;SDS011;65903;51.452;7.198;2023-03-08T06:22:04;13.45;;;8.02;;
76964;SDS011;65903;51.452;7.198;2023-03-08T06:23:05;13.38;;;6.50;;
76964;SDS011;65903;51.452;7.198;2023-03-08T06:25:09;11.75;;;6.35;;